sensor_id;sensor_type;location;lat;lon;timestamp;P1;durP1;ratioP1;P2;durP2;ratioP2
20511;SDS011;10414;52.074;5.126;2022-12-18T00:01:19;52.55;;;17.75;;
20511;SDS011;10414;52.074;5.126;2022-12-18T00:03:48;48.75;;;16.48;;
20511;SDS011;10414;52.074;5.126;2022-12-18T00:06:15;55.67;;;18.20;;
20511;SDS011;10414;52.074;5.126;2022-12-18T00:08:43;59.03;;;19.40;;
20511;SDS011;10414;52.074;5.126;2022-12-18T00:11:11;51.30;;;17.25;;
20511;SDS011;10414;52.074;5.126;2022-12-18T00:13:38;55.15;;;17.63;;
20511;SDS011;10414;52.074;5.126;2022-12-18T00:16:06;51.65;;;18.27;;
20511;SDS011;10414;52.074;5.126;2022-12-18T00:18:36;54.33;;;18.63;;
20511;SDS011;10414;52.074;5.126;2022-12-18T00:21:07;54.22;;;16.85;;
20511;SDS011;10414;52.074;5.126;2022-12-18T00:23:37;50.28;;;15.40;;
20511;SDS011;10414;52.074;5.126;2022-12-18T00:26:06;47.00;;;16.15;;
20511;SDS011;10414;52.074;5.126;2022-12-18T00:28:34;61.25;;;17.70;;
20511;SDS011;10414;52.074;5.126;2022-12-18T00:31:09;49.38;;;15.55;;
20511;SDS011;10414;52.074;5.126;2022-12-18T00:33:39;59.97;;;18.30;;
20511;SDS011;10414;52.074;5.126;2022-12-18T00:36:06;51.15;;;17.50;;
20511;SDS011;10414;52.074;5.126;2022-12-18T00:38:35;50.95;;;16.40;;
20511;SDS011;10414;52.074;5.126;2022-12-18T00:41:08;53.05;;;18.75;;
20511;SDS011;10414;52.074;5.126;2022-12-18T00:43:36;56.58;;;17.52;;
20511;SDS011;10414;52.074;5.126;2022-12-18T00:46:03;54.88;;;18.42;;
20511;SDS011;10414;52.074;5.126;2022-12-18T00:48:30;68.30;;;19.60;;
20511;SDS011;10414;52.074;5.126;2022-12-18T00:50:58;60.95;;;19.10;;
20511;SDS011;10414;52.074;5.126;2022-12-18T00:53:25;54.15;;;18.35;;
20511;SDS011;10414;52.074;5.126;2022-12-18T00:55:52;59.55;;;17.70;;
20511;SDS011;10414;52.074;5.126;2022-12-18T00:58:23;52.60;;;16.38;;
20511;SDS011;10414;52.074;5.126;2022-12-18T01:00:56;57.53;;;16.42;;
20511;SDS011;10414;52.074;5.126;2022-12-18T01:03:22;50.95;;;16.30;;
20511;SDS011;10414;52.074;5.126;2022-12-18T01:05:50;52.75;;;16.35;;
20511;SDS011;10414;52.074;5.126;2022-12-18T01:08:18;65.38;;;18.73;;
20511;SDS011;10414;52.074;5.126;2022-12-18T01:10:46;60.85;;;19.08;;
20511;SDS011;10414;52.074;5.126;2022-12-18T01:13:14;53.08;;;17.50;;
20511;SDS011;10414;52.074;5.126;2022-12-18T01:15:47;50.60;;;15.65;;
20511;SDS011;10414;52.074;5.126;2022-12-18T01:18:15;56.53;;;17.90;;
20511;SDS011;10414;52.074;5.126;2022-12-18T01:20:44;43.50;;;14.40;;
20511;SDS011;10414;52.074;5.126;2022-12-18T01:23:15;46.42;;;15.65;;
20511;SDS011;10414;52.074;5.126;2022-12-18T01:25:46;61.22;;;17.83;;
20511;SDS011;10414;52.074;5.126;2022-12-18T01:28:12;63.47;;;19.08;;
20511;SDS011;10414;52.074;5.126;2022-12-18T01:30:39;58.97;;;19.25;;
20511;SDS011;10414;52.074;5.126;2022-12-18T01:33:06;59.35;;;17.80;;
20511;SDS011;10414;52.074;5.126;2022-12-18T01:35:33;59.03;;;18.80;;
20511;SDS011;10414;52.074;5.126;2022-12-18T01:38:16;75.18;;;20.02;;
20511;SDS011;10414;52.074;5.126;2022-12-18T01:40:45;60.78;;;20.02;;
20511;SDS011;10414;52.074;5.126;2022-12-18T01:43:12;59.90;;;18.98;;
20511;SDS011;10414;52.074;5.126;2022-12-18T01:45:39;60.42;;;19.33;;
20511;SDS011;10414;52.074;5.126;2022-12-18T01:48:06;55.42;;;17.23;;
20511;SDS011;10414;52.074;5.126;2022-12-18T01:50:37;66.25;;;19.58;;
20511;SDS011;10414;52.074;5.126;2022-12-18T01:53:06;65.15;;;19.83;;
20511;SDS011;10414;52.074;5.126;2022-12-18T01:55:37;52.67;;;17.33;;
20511;SDS011;10414;52.074;5.126;2022-12-18T01:58:15;59.67;;;19.45;;
20511;SDS011;10414;52.074;5.126;2022-12-18T02:00:44;56.20;;;20.08;;
20511;SDS011;10414;52.074;5.126;2022-12-18T02:03:11;60.75;;;19.55;;
20511;SDS011;10414;52.074;5.126;2022-12-18T02:05:40;57.63;;;19.83;;
20511;SDS011;10414;52.074;5.126;2022-12-18T02:08:12;53.17;;;17.98;;
20511;SDS011;10414;52.074;5.126;2022-12-18T02:10:46;61.53;;;19.05;;
20511;SDS011;10414;52.074;5.126;2022-12-18T02:13:21;48.35;;;17.63;;
20511;SDS011;10414;52.074;5.126;2022-12-18T02:15:57;50.72;;;16.80;;
20511;SDS011;10414;52.074;5.126;2022-12-18T02:18:38;55.03;;;19.23;;
20511;SDS011;10414;52.074;5.126;2022-12-18T02:21:12;57.75;;;20.13;;
20511;SDS011;10414;52.074;5.126;2022-12-18T02:23:47;58.70;;;17.58;;
20511;SDS011;10414;52.074;5.126;2022-12-18T02:26:21;56.13;;;19.33;;
20511;SDS011;10414;52.074;5.126;2022-12-18T02:28:55;54.33;;;17.90;;
20511;SDS011;10414;52.074;5.126;2022-12-18T02:31:27;58.65;;;20.27;;
20511;SDS011;10414;52.074;5.126;2022-12-18T02:33:58;54.15;;;19.48;;
20511;SDS011;10414;52.074;5.126;2022-12-18T02:36:28;51.30;;;18.25;;
20511;SDS011;10414;52.074;5.126;2022-12-18T02:38:58;53.92;;;18.83;;
20511;SDS011;10414;52.074;5.126;2022-12-18T02:41:31;59.10;;;19.77;;
20511;SDS011;10414;52.074;5.126;2022-12-18T02:44:01;56.85;;;18.45;;
20511;SDS011;10414;52.074;5.126;2022-12-18T02:46:34;51.45;;;19.13;;
20511;SDS011;10414;52.074;5.126;2022-12-18T02:49:06;53.70;;;17.55;;
20511;SDS011;10414;52.074;5.126;2022-12-18T02:51:49;50.72;;;16.45;;
20511;SDS011;10414;52.074;5.126;2022-12-18T02:54:35;49.35;;;16.85;;
20511;SDS011;10414;52.074;5.126;2022-12-18T02:57:12;58.15;;;18.35;;
20511;SDS011;10414;52.074;5.126;2022-12-18T02:59:47;55.42;;;18.77;;
20511;SDS011;10414;52.074;5.126;2022-12-18T03:02:21;49.53;;;16.48;;
20511;SDS011;10414;52.074;5.126;2022-12-18T03:04:55;46.80;;;16.63;;
20511;SDS011;10414;52.074;5.126;2022-12-18T03:07:28;44.60;;;16.60;;
20511;SDS011;10414;52.074;5.126;2022-12-18T03:10:00;54.13;;;16.98;;
20511;SDS011;10414;52.074;5.126;2022-12-18T03:12:30;44.20;;;16.55;;
20511;SDS011;10414;52.074;5.126;2022-12-18T03:15:04;51.67;;;16.42;;
20511;SDS011;10414;52.074;5.126;2022-12-18T03:17:36;43.47;;;15.95;;
20511;SDS011;10414;52.074;5.126;2022-12-18T03:20:08;41.33;;;16.60;;
20511;SDS011;10414;52.074;5.126;2022-12-18T03:22:38;51.58;;;18.00;;
20511;SDS011;10414;52.074;5.126;2022-12-18T03:25:10;44.97;;;16.25;;
20511;SDS011;10414;52.074;5.126;2022-12-18T03:27:43;46.22;;;16.27;;
20511;SDS011;10414;52.074;5.126;2022-12-18T03:30:15;39.53;;;15.02;;
20511;SDS011;10414;52.074;5.126;2022-12-18T03:32:44;49.80;;;17.50;;
20511;SDS011;10414;52.074;5.126;2022-12-18T03:35:15;40.45;;;15.68;;
20511;SDS011;10414;52.074;5.126;2022-12-18T03:37:47;45.15;;;15.63;;
20511;SDS011;10414;52.074;5.126;2022-12-18T03:40:14;50.58;;;17.10;;
20511;SDS011;10414;52.074;5.126;2022-12-18T03:42:45;45.63;;;16.10;;
20511;SDS011;10414;52.074;5.126;2022-12-18T03:45:18;40.85;;;15.35;;
20511;SDS011;10414;52.074;5.126;2022-12-18T03:47:52;43.33;;;16.52;;
20511;SDS011;10414;52.074;5.126;2022-12-18T03:50:34;41.75;;;15.00;;
20511;SDS011;10414;52.074;5.126;2022-12-18T03:53:08;41.15;;;16.88;;
20511;SDS011;10414;52.074;5.126;2022-12-18T03:55:43;48.35;;;16.65;;
20511;SDS011;10414;52.074;5.126;2022-12-18T03:58:12;38.65;;;13.70;;
20511;SDS011;10414;52.074;5.126;2022-12-18T04:00:44;44.22;;;16.75;;
20511;SDS011;10414;52.074;5.126;2022-12-18T04:03:11;42.35;;;16.15;;
20511;SDS011;10414;52.074;5.126;2022-12-18T04:05:41;37.80;;;15.07;;
20511;SDS011;10414;52.074;5.126;2022-12-18T04:08:09;45.42;;;17.80;;
20511;SDS011;10414;52.074;5.126;2022-12-18T04:10:39;45.88;;;16.83;;
20511;SDS011;10414;52.074;5.126;2022-12-18T04:13:06;44.17;;;16.73;;
20511;SDS011;10414;52.074;5.126;2022-12-18T04:15:34;44.10;;;18.02;;
20511;SDS011;10414;52.074;5.126;2022-12-18T04:18:03;46.13;;;15.90;;
20511;SDS011;10414;52.074;5.126;2022-12-18T04:20:30;44.20;;;17.02;;
20511;SDS011;10414;52.074;5.126;2022-12-18T04:22:57;39.28;;;16.27;;
20511;SDS011;10414;52.074;5.126;2022-12-18T04:25:26;48.97;;;16.92;;
20511;SDS011;10414;52.074;5.126;2022-12-18T04:27:52;43.65;;;17.13;;
20511;SDS011;10414;52.074;5.126;2022-12-18T04:30:21;40.88;;;16.23;;
20511;SDS011;10414;52.074;5.126;2022-12-18T04:32:49;43.63;;;16.48;;
20511;SDS011;10414;52.074;5.126;2022-12-18T04:35:17;38.38;;;14.52;;
20511;SDS011;10414;52.074;5.126;2022-12-18T04:37:44;45.25;;;17.00;;
20511;SDS011;10414;52.074;5.126;2022-12-18T04:40:11;43.33;;;16.80;;
20511;SDS011;10414;52.074;5.126;2022-12-18T04:43:37;42.35;;;15.32;;
20511;SDS011;10414;52.074;5.126;2022-12-18T04:46:06;36.80;;;15.90;;
20511;SDS011;10414;52.074;5.126;2022-12-18T04:48:37;39.83;;;15.82;;
20511;SDS011;10414;52.074;5.126;2022-12-18T04:51:06;41.08;;;16.25;;
20511;SDS011;10414;52.074;5.126;2022-12-18T04:53:33;40.28;;;15.07;;
20511;SDS011;10414;52.074;5.126;2022-12-18T04:56:04;37.85;;;16.00;;
20511;SDS011;10414;52.074;5.126;2022-12-18T04:58:32;39.83;;;15.50;;
20511;SDS011;10414;52.074;5.126;2022-12-18T05:01:04;37.85;;;15.43;;
20511;SDS011;10414;52.074;5.126;2022-12-18T05:03:32;31.35;;;13.95;;
20511;SDS011;10414;52.074;5.126;2022-12-18T05:06:00;33.53;;;13.65;;
20511;SDS011;10414;52.074;5.126;2022-12-18T05:08:30;39.30;;;14.35;;
20511;SDS011;10414;52.074;5.126;2022-12-18T05:10:58;35.90;;;13.30;;
20511;SDS011;10414;52.074;5.126;2022-12-18T05:13:28;32.80;;;12.90;;
20511;SDS011;10414;52.074;5.126;2022-12-18T05:15:58;30.05;;;11.73;;
20511;SDS011;10414;52.074;5.126;2022-12-18T05:18:25;30.25;;;11.60;;
20511;SDS011;10414;52.074;5.126;2022-12-18T05:20:53;35.03;;;12.88;;
20511;SDS011;10414;52.074;5.126;2022-12-18T05:23:21;33.72;;;12.65;;
20511;SDS011;10414;52.074;5.126;2022-12-18T05:25:50;28.98;;;11.85;;
20511;SDS011;10414;52.074;5.126;2022-12-18T05:28:18;30.23;;;11.95;;
20511;SDS011;10414;52.074;5.126;2022-12-18T05:30:47;32.40;;;11.65;;
20511;SDS011;10414;52.074;5.126;2022-12-18T05:33:16;28.42;;;11.93;;
20511;SDS011;10414;52.074;5.126;2022-12-18T05:35:53;32.63;;;12.35;;
20511;SDS011;10414;52.074;5.126;2022-12-18T05:38:21;31.25;;;12.15;;
20511;SDS011;10414;52.074;5.126;2022-12-18T05:40:50;26.65;;;10.65;;
20511;SDS011;10414;52.074;5.126;2022-12-18T05:43:17;28.98;;;11.52;;
20511;SDS011;10414;52.074;5.126;2022-12-18T05:45:46;30.25;;;11.60;;
20511;SDS011;10414;52.074;5.126;2022-12-18T05:48:20;27.23;;;11.13;;
20511;SDS011;10414;52.074;5.126;2022-12-18T05:50:51;29.42;;;11.73;;
20511;SDS011;10414;52.074;5.126;2022-12-18T05:53:19;24.85;;;10.05;;
20511;SDS011;10414;52.074;5.126;2022-12-18T05:55:48;27.55;;;10.80;;
20511;SDS011;10414;52.074;5.126;2022-12-18T05:58:15;25.85;;;10.20;;
20511;SDS011;10414;52.074;5.126;2022-12-18T06:00:43;23.75;;;10.02;;
20511;SDS011;10414;52.074;5.126;2022-12-18T06:03:12;22.98;;;9.48;;
20511;SDS011;10414;52.074;5.126;2022-12-18T06:05:44;25.15;;;10.90;;
20511;SDS011;10414;52.074;5.126;2022-12-18T06:08:13;25.25;;;10.43;;
20511;SDS011;10414;52.074;5.126;2022-12-18T06:10:40;26.70;;;9.82;;
20511;SDS011;10414;52.074;5.126;2022-12-18T06:13:07;24.75;;;10.77;;
20511;SDS011;10414;52.074;5.126;2022-12-18T06:15:35;24.65;;;9.73;;
20511;SDS011;10414;52.074;5.126;2022-12-18T06:18:04;25.47;;;9.97;;
20511;SDS011;10414;52.074;5.126;2022-12-18T06:20:33;23.45;;;9.40;;
20511;SDS011;10414;52.074;5.126;2022-12-18T06:23:03;27.40;;;9.93;;
20511;SDS011;10414;52.074;5.126;2022-12-18T06:25:30;18.73;;;8.48;;
20511;SDS011;10414;52.074;5.126;2022-12-18T06:27:59;24.77;;;10.32;;
20511;SDS011;10414;52.074;5.126;2022-12-18T06:30:26;21.80;;;9.48;;
20511;SDS011;10414;52.074;5.126;2022-12-18T06:32:53;20.70;;;9.20;;
20511;SDS011;10414;52.074;5.126;2022-12-18T06:35:19;22.10;;;9.63;;
20511;SDS011;10414;52.074;5.126;2022-12-18T06:37:48;20.88;;;8.45;;
20511;SDS011;10414;52.074;5.126;2022-12-18T06:40:17;21.35;;;7.95;;
20511;SDS011;10414;52.074;5.126;2022-12-18T06:42:47;27.67;;;10.13;;
20511;SDS011;10414;52.074;5.126;2022-12-18T06:45:20;24.85;;;9.40;;
20511;SDS011;10414;52.074;5.126;2022-12-18T06:47:49;20.08;;;8.90;;
20511;SDS011;10414;52.074;5.126;2022-12-18T06:50:17;18.60;;;8.05;;
20511;SDS011;10414;52.074;5.126;2022-12-18T06:52:46;20.42;;;9.32;;
20511;SDS011;10414;52.074;5.126;2022-12-18T06:55:13;23.92;;;9.55;;
20511;SDS011;10414;52.074;5.126;2022-12-18T06:57:41;23.40;;;9.73;;
20511;SDS011;10414;52.074;5.126;2022-12-18T07:00:08;21.10;;;8.80;;
20511;SDS011;10414;52.074;5.126;2022-12-18T07:02:35;22.23;;;9.35;;
20511;SDS011;10414;52.074;5.126;2022-12-18T07:05:02;19.30;;;7.43;;
20511;SDS011;10414;52.074;5.126;2022-12-18T07:07:33;20.23;;;8.23;;
20511;SDS011;10414;52.074;5.126;2022-12-18T07:10:02;20.10;;;9.32;;
20511;SDS011;10414;52.074;5.126;2022-12-18T07:12:29;21.67;;;9.75;;
20511;SDS011;10414;52.074;5.126;2022-12-18T07:14:57;21.73;;;10.10;;
20511;SDS011;10414;52.074;5.126;2022-12-18T07:17:24;22.40;;;9.27;;
20511;SDS011;10414;52.074;5.126;2022-12-18T07:19:51;20.73;;;9.50;;
20511;SDS011;10414;52.074;5.126;2022-12-18T07:22:20;18.02;;;8.43;;
20511;SDS011;10414;52.074;5.126;2022-12-18T07:24:47;20.20;;;7.85;;
20511;SDS011;10414;52.074;5.126;2022-12-18T07:27:14;23.77;;;9.75;;
20511;SDS011;10414;52.074;5.126;2022-12-18T07:29:41;20.38;;;9.60;;
20511;SDS011;10414;52.074;5.126;2022-12-18T07:32:09;22.73;;;9.55;;
20511;SDS011;10414;52.074;5.126;2022-12-18T07:34:39;21.37;;;8.70;;
20511;SDS011;10414;52.074;5.126;2022-12-18T07:37:06;23.25;;;9.85;;
20511;SDS011;10414;52.074;5.126;2022-12-18T07:39:33;25.13;;;10.40;;
20511;SDS011;10414;52.074;5.126;2022-12-18T07:42:00;22.05;;;9.80;;
20511;SDS011;10414;52.074;5.126;2022-12-18T07:44:56;20.40;;;9.75;;
20511;SDS011;10414;52.074;5.126;2022-12-18T07:47:24;21.85;;;10.68;;
20511;SDS011;10414;52.074;5.126;2022-12-18T07:49:51;21.75;;;8.80;;
20511;SDS011;10414;52.074;5.126;2022-12-18T07:52:17;23.25;;;9.00;;
20511;SDS011;10414;52.074;5.126;2022-12-18T07:54:44;21.55;;;9.48;;
20511;SDS011;10414;52.074;5.126;2022-12-18T07:57:13;21.00;;;9.38;;
20511;SDS011;10414;52.074;5.126;2022-12-18T07:59:40;18.50;;;8.43;;
20511;SDS011;10414;52.074;5.126;2022-12-18T08:02:07;20.90;;;9.68;;
20511;SDS011;10414;52.074;5.126;2022-12-18T08:04:35;22.25;;;9.40;;
20511;SDS011;10414;52.074;5.126;2022-12-18T08:07:02;22.88;;;10.18;;
20511;SDS011;10414;52.074;5.126;2022-12-18T08:09:36;23.35;;;9.25;;
20511;SDS011;10414;52.074;5.126;2022-12-18T08:12:03;20.10;;;9.75;;
20511;SDS011;10414;52.074;5.126;2022-12-18T08:14:32;22.35;;;9.27;;
20511;SDS011;10414;52.074;5.126;2022-12-18T08:16:59;21.00;;;9.27;;
20511;SDS011;10414;52.074;5.126;2022-12-18T08:19:29;18.50;;;9.07;;
20511;SDS011;10414;52.074;5.126;2022-12-18T08:21:58;22.55;;;9.60;;
20511;SDS011;10414;52.074;5.126;2022-12-18T08:24:27;18.75;;;9.13;;
20511;SDS011;10414;52.074;5.126;2022-12-18T08:26:54;18.60;;;9.13;;
20511;SDS011;10414;52.074;5.126;2022-12-18T08:29:22;19.15;;;8.65;;
20511;SDS011;10414;52.074;5.126;2022-12-18T08:31:49;21.60;;;9.20;;
20511;SDS011;10414;52.074;5.126;2022-12-18T08:34:15;18.63;;;8.48;;
20511;SDS011;10414;52.074;5.126;2022-12-18T08:36:44;20.00;;;8.60;;
20511;SDS011;10414;52.074;5.126;2022-12-18T08:39:13;20.90;;;9.07;;
20511;SDS011;10414;52.074;5.126;2022-12-18T08:41:40;19.10;;;8.73;;
20511;SDS011;10414;52.074;5.126;2022-12-18T08:44:29;19.25;;;8.60;;
20511;SDS011;10414;52.074;5.126;2022-12-18T08:47:04;19.10;;;8.82;;
20511;SDS011;10414;52.074;5.126;2022-12-18T08:49:31;18.60;;;8.85;;
20511;SDS011;10414;52.074;5.126;2022-12-18T08:51:58;18.83;;;8.95;;
20511;SDS011;10414;52.074;5.126;2022-12-18T08:54:27;18.85;;;7.93;;
20511;SDS011;10414;52.074;5.126;2022-12-18T08:56:54;20.30;;;8.77;;
20511;SDS011;10414;52.074;5.126;2022-12-18T08:59:21;20.83;;;8.98;;
20511;SDS011;10414;52.074;5.126;2022-12-18T09:01:48;18.13;;;8.85;;
20511;SDS011;10414;52.074;5.126;2022-12-18T09:04:15;16.50;;;8.02;;
20511;SDS011;10414;52.074;5.126;2022-12-18T09:06:45;21.65;;;9.07;;
20511;SDS011;10414;52.074;5.126;2022-12-18T09:09:12;16.80;;;7.55;;
20511;SDS011;10414;52.074;5.126;2022-12-18T09:11:42;18.88;;;8.98;;
20511;SDS011;10414;52.074;5.126;2022-12-18T09:14:10;22.15;;;9.15;;
20511;SDS011;10414;52.074;5.126;2022-12-18T09:16:37;19.98;;;8.65;;
20511;SDS011;10414;52.074;5.126;2022-12-18T09:19:04;22.58;;;8.93;;
20511;SDS011;10414;52.074;5.126;2022-12-18T09:21:32;20.02;;;9.25;;
20511;SDS011;10414;52.074;5.126;2022-12-18T09:24:04;18.75;;;8.95;;
20511;SDS011;10414;52.074;5.126;2022-12-18T09:26:32;19.50;;;7.93;;
20511;SDS011;10414;52.074;5.126;2022-12-18T09:29:00;19.98;;;8.82;;
20511;SDS011;10414;52.074;5.126;2022-12-18T09:31:32;16.90;;;7.13;;
20511;SDS011;10414;52.074;5.126;2022-12-18T09:33:59;14.55;;;6.65;;
20511;SDS011;10414;52.074;5.126;2022-12-18T09:36:26;18.42;;;7.32;;
20511;SDS011;10414;52.074;5.126;2022-12-18T09:38:55;20.40;;;9.60;;
20511;SDS011;10414;52.074;5.126;2022-12-18T09:41:28;18.17;;;8.77;;
20511;SDS011;10414;52.074;5.126;2022-12-18T09:44:09;21.10;;;8.52;;
20511;SDS011;10414;52.074;5.126;2022-12-18T09:46:43;19.92;;;8.82;;
20511;SDS011;10414;52.074;5.126;2022-12-18T09:49:17;19.13;;;7.65;;
20511;SDS011;10414;52.074;5.126;2022-12-18T09:51:49;15.38;;;7.15;;
20511;SDS011;10414;52.074;5.126;2022-12-18T09:54:20;18.67;;;8.18;;
20511;SDS011;10414;52.074;5.126;2022-12-18T09:56:51;16.23;;;7.88;;
20511;SDS011;10414;52.074;5.126;2022-12-18T09:59:22;18.52;;;7.63;;
20511;SDS011;10414;52.074;5.126;2022-12-18T10:01:52;20.08;;;9.07;;
20511;SDS011;10414;52.074;5.126;2022-12-18T10:04:25;18.95;;;9.15;;
20511;SDS011;10414;52.074;5.126;2022-12-18T10:06:57;18.10;;;8.43;;
20511;SDS011;10414;52.074;5.126;2022-12-18T10:09:30;19.77;;;9.13;;
20511;SDS011;10414;52.074;5.126;2022-12-18T10:12:06;19.20;;;8.88;;
20511;SDS011;10414;52.074;5.126;2022-12-18T10:14:43;21.35;;;9.82;;
20511;SDS011;10414;52.074;5.126;2022-12-18T10:17:18;21.55;;;9.68;;
20511;SDS011;10414;52.074;5.126;2022-12-18T10:19:53;21.45;;;9.75;;
20511;SDS011;10414;52.074;5.126;2022-12-18T10:22:25;21.25;;;9.23;;
20511;SDS011;10414;52.074;5.126;2022-12-18T10:25:05;22.58;;;9.45;;
20511;SDS011;10414;52.074;5.126;2022-12-18T10:27:40;22.00;;;9.00;;
20511;SDS011;10414;52.074;5.126;2022-12-18T10:30:13;19.33;;;9.27;;
20511;SDS011;10414;52.074;5.126;2022-12-18T10:32:41;17.35;;;7.88;;
20511;SDS011;10414;52.074;5.126;2022-12-18T10:35:11;20.40;;;8.30;;
20511;SDS011;10414;52.074;5.126;2022-12-18T10:38:00;21.60;;;9.18;;
20511;SDS011;10414;52.074;5.126;2022-12-18T10:40:30;19.65;;;8.98;;
20511;SDS011;10414;52.074;5.126;2022-12-18T10:43:03;18.20;;;8.40;;
20511;SDS011;10414;52.074;5.126;2022-12-18T10:45:32;15.88;;;7.35;;
20511;SDS011;10414;52.074;5.126;2022-12-18T10:48:00;18.75;;;7.85;;
20511;SDS011;10414;52.074;5.126;2022-12-18T10:50:28;19.85;;;8.52;;
20511;SDS011;10414;52.074;5.126;2022-12-18T10:52:57;19.98;;;9.02;;
20511;SDS011;10414;52.074;5.126;2022-12-18T10:55:27;20.92;;;8.88;;
20511;SDS011;10414;52.074;5.126;2022-12-18T10:58:12;18.83;;;8.50;;
20511;SDS011;10414;52.074;5.126;2022-12-18T11:00:50;18.60;;;8.20;;
20511;SDS011;10414;52.074;5.126;2022-12-18T11:03:33;18.77;;;8.63;;
20511;SDS011;10414;52.074;5.126;2022-12-18T11:06:02;21.10;;;8.85;;
20511;SDS011;10414;52.074;5.126;2022-12-18T11:08:31;20.53;;;8.30;;
20511;SDS011;10414;52.074;5.126;2022-12-18T11:10:58;19.02;;;8.88;;
20511;SDS011;10414;52.074;5.126;2022-12-18T11:13:25;19.63;;;8.43;;
20511;SDS011;10414;52.074;5.126;2022-12-18T11:15:55;19.08;;;8.25;;
20511;SDS011;10414;52.074;5.126;2022-12-18T11:18:24;19.70;;;8.20;;
20511;SDS011;10414;52.074;5.126;2022-12-18T11:23:22;16.05;;;7.10;;
20511;SDS011;10414;52.074;5.126;2022-12-18T11:25:53;18.40;;;8.82;;
20511;SDS011;10414;52.074;5.126;2022-12-18T11:28:35;17.75;;;7.38;;
20511;SDS011;10414;52.074;5.126;2022-12-18T11:33:54;18.50;;;7.80;;
20511;SDS011;10414;52.074;5.126;2022-12-18T11:36:28;15.75;;;7.40;;
20511;SDS011;10414;52.074;5.126;2022-12-18T11:38:59;20.73;;;9.13;;
20511;SDS011;10414;52.074;5.126;2022-12-18T11:41:29;21.02;;;8.60;;
20511;SDS011;10414;52.074;5.126;2022-12-18T11:44:22;18.40;;;7.97;;
20511;SDS011;10414;52.074;5.126;2022-12-18T11:47:00;21.90;;;9.35;;
20511;SDS011;10414;52.074;5.126;2022-12-18T11:49:34;22.73;;;8.98;;
20511;SDS011;10414;52.074;5.126;2022-12-18T11:54:35;17.90;;;7.50;;
20511;SDS011;10414;52.074;5.126;2022-12-18T11:57:03;21.60;;;8.95;;
20511;SDS011;10414;52.074;5.126;2022-12-18T11:59:37;20.58;;;8.43;;
20511;SDS011;10414;52.074;5.126;2022-12-18T12:02:26;19.23;;;8.38;;
20511;SDS011;10414;52.074;5.126;2022-12-18T12:05:18;20.00;;;8.23;;
20511;SDS011;10414;52.074;5.126;2022-12-18T12:07:57;18.45;;;8.52;;
20511;SDS011;10414;52.074;5.126;2022-12-18T12:10:32;19.02;;;8.18;;
20511;SDS011;10414;52.074;5.126;2022-12-18T12:13:13;19.13;;;8.15;;
20511;SDS011;10414;52.074;5.126;2022-12-18T12:15:54;20.60;;;8.35;;
20511;SDS011;10414;52.074;5.126;2022-12-18T12:18:29;18.58;;;8.82;;
20511;SDS011;10414;52.074;5.126;2022-12-18T12:21:09;23.15;;;9.02;;
20511;SDS011;10414;52.074;5.126;2022-12-18T12:23:47;15.60;;;7.20;;
20511;SDS011;10414;52.074;5.126;2022-12-18T12:26:22;16.75;;;8.23;;
20511;SDS011;10414;52.074;5.126;2022-12-18T12:28:59;19.38;;;8.73;;
20511;SDS011;10414;52.074;5.126;2022-12-18T12:31:33;19.70;;;8.52;;
20511;SDS011;10414;52.074;5.126;2022-12-18T12:34:16;18.85;;;7.95;;
20511;SDS011;10414;52.074;5.126;2022-12-18T12:36:52;18.17;;;8.38;;
20511;SDS011;10414;52.074;5.126;2022-12-18T12:39:32;20.35;;;8.45;;
20511;SDS011;10414;52.074;5.126;2022-12-18T12:42:02;16.73;;;7.78;;
20511;SDS011;10414;52.074;5.126;2022-12-18T12:44:50;20.70;;;7.95;;
20511;SDS011;10414;52.074;5.126;2022-12-18T12:47:21;16.48;;;8.15;;
20511;SDS011;10414;52.074;5.126;2022-12-18T12:49:53;20.23;;;8.20;;
20511;SDS011;10414;52.074;5.126;2022-12-18T12:52:27;17.60;;;7.60;;
20511;SDS011;10414;52.074;5.126;2022-12-18T12:54:59;16.70;;;7.43;;
20511;SDS011;10414;52.074;5.126;2022-12-18T12:57:30;21.45;;;9.45;;
20511;SDS011;10414;52.074;5.126;2022-12-18T13:00:01;18.67;;;8.45;;
20511;SDS011;10414;52.074;5.126;2022-12-18T13:02:35;18.92;;;8.35;;
20511;SDS011;10414;52.074;5.126;2022-12-18T13:05:10;18.70;;;8.45;;
20511;SDS011;10414;52.074;5.126;2022-12-18T13:07:47;19.08;;;8.45;;
20511;SDS011;10414;52.074;5.126;2022-12-18T13:10:25;19.17;;;9.43;;
20511;SDS011;10414;52.074;5.126;2022-12-18T13:12:58;18.88;;;8.15;;
20511;SDS011;10414;52.074;5.126;2022-12-18T13:15:28;19.75;;;9.18;;
20511;SDS011;10414;52.074;5.126;2022-12-18T13:18:06;21.98;;;8.57;;
20511;SDS011;10414;52.074;5.126;2022-12-18T13:20:42;18.02;;;8.40;;
20511;SDS011;10414;52.074;5.126;2022-12-18T13:28:55;18.38;;;8.35;;
20511;SDS011;10414;52.074;5.126;2022-12-18T13:34:37;16.85;;;8.27;;
20511;SDS011;10414;52.074;5.126;2022-12-18T13:43:32;19.00;;;8.50;;
20511;SDS011;10414;52.074;5.126;2022-12-18T13:46:05;18.73;;;8.02;;
20511;SDS011;10414;52.074;5.126;2022-12-18T13:48:49;19.63;;;8.93;;
20511;SDS011;10414;52.074;5.126;2022-12-18T13:51:28;18.08;;;8.20;;
20511;SDS011;10414;52.074;5.126;2022-12-18T13:53:58;21.52;;;9.35;;
20511;SDS011;10414;52.074;5.126;2022-12-18T13:56:31;21.27;;;9.07;;
20511;SDS011;10414;52.074;5.126;2022-12-18T13:59:12;17.85;;;7.63;;
20511;SDS011;10414;52.074;5.126;2022-12-18T14:01:50;21.38;;;8.95;;
20511;SDS011;10414;52.074;5.126;2022-12-18T14:04:21;21.70;;;9.15;;
20511;SDS011;10414;52.074;5.126;2022-12-18T14:06:53;20.30;;;8.85;;
20511;SDS011;10414;52.074;5.126;2022-12-18T14:09:24;20.80;;;10.48;;
20511;SDS011;10414;52.074;5.126;2022-12-18T14:11:54;21.23;;;9.25;;
20511;SDS011;10414;52.074;5.126;2022-12-18T14:14:43;19.35;;;8.38;;
20511;SDS011;10414;52.074;5.126;2022-12-18T14:17:14;18.83;;;9.40;;
20511;SDS011;10414;52.074;5.126;2022-12-18T14:19:44;22.30;;;9.10;;
20511;SDS011;10414;52.074;5.126;2022-12-18T14:22:14;18.25;;;9.13;;
20511;SDS011;10414;52.074;5.126;2022-12-18T14:24:42;19.58;;;8.90;;
20511;SDS011;10414;52.074;5.126;2022-12-18T14:27:22;19.38;;;8.88;;
20511;SDS011;10414;52.074;5.126;2022-12-18T14:29:50;18.90;;;8.55;;
20511;SDS011;10414;52.074;5.126;2022-12-18T14:32:18;19.05;;;8.93;;
20511;SDS011;10414;52.074;5.126;2022-12-18T14:34:48;18.25;;;8.63;;
20511;SDS011;10414;52.074;5.126;2022-12-18T14:37:17;21.30;;;9.50;;
20511;SDS011;10414;52.074;5.126;2022-12-18T14:39:54;20.85;;;9.68;;
20511;SDS011;10414;52.074;5.126;2022-12-18T14:42:24;22.25;;;8.55;;
20511;SDS011;10414;52.074;5.126;2022-12-18T14:47:53;17.23;;;7.90;;
20511;SDS011;10414;52.074;5.126;2022-12-18T14:50:19;24.02;;;10.25;;
20511;SDS011;10414;52.074;5.126;2022-12-18T14:52:46;21.70;;;9.60;;
20511;SDS011;10414;52.074;5.126;2022-12-18T14:55:17;20.90;;;9.05;;
20511;SDS011;10414;52.074;5.126;2022-12-18T14:57:47;21.92;;;9.60;;
20511;SDS011;10414;52.074;5.126;2022-12-18T15:02:45;21.10;;;8.80;;
20511;SDS011;10414;52.074;5.126;2022-12-18T15:05:18;21.88;;;9.32;;
20511;SDS011;10414;52.074;5.126;2022-12-18T15:07:50;19.23;;;9.07;;
20511;SDS011;10414;52.074;5.126;2022-12-18T15:10:18;22.27;;;9.85;;
20511;SDS011;10414;52.074;5.126;2022-12-18T15:12:48;24.33;;;9.45;;
20511;SDS011;10414;52.074;5.126;2022-12-18T15:18:11;20.50;;;8.90;;
20511;SDS011;10414;52.074;5.126;2022-12-18T15:20:42;22.05;;;9.77;;
20511;SDS011;10414;52.074;5.126;2022-12-18T15:23:18;21.38;;;10.02;;